Time;durP1;ratioP1;P1;durP2;ratioP2;P2;SDS_P1;SDS_P2;PMS_P1;PMS_P2;Temp;Humidity;BMP_temperature;BMP_pressure;BME280_temperature;BME280_humidity;BME280_pressure;Samples;Min_cycle;Max_cycle;Signal;HPM_P1;HPM_P2
2021/07/13 00:01:30;;;;;;;;;;;17.70;70.70;;;;;;4844851;29;19967;-71
2021/07/13 00:03:57;;;;;;;;;;;17.70;70.50;;;;;;4861037;29;19931;-71
2021/07/13 00:06:24;;;;;;;;;;;17.70;70.50;;;;;;4861693;29;20008;-71
2021/07/13 00:08:53;;;;;;;;;;;17.80;70.50;;;;;;4860997;29;19924;-71
2021/07/13 00:11:19;;;;;;;;;;;17.80;70.30;;;;;;4864922;29;19923;-71
2021/07/13 00:13:46;;;;;;;;;;;17.80;70.20;;;;;;4862916;29;19973;-71
2021/07/13 00:16:12;;;;;;;;;;;17.80;70.10;;;;;;4861428;29;19923;-71
2021/07/13 00:18:39;;;;;;;;;;;17.80;69.90;;;;;;4861049;29;19924;-71
2021/07/13 00:21:07;;;;;;;;;;;17.80;70.00;;;;;;4861656;29;19931;-70
2021/07/13 00:23:34;;;;;;;;;;;17.80;69.90;;;;;;4860732;29;19924;-71
2021/07/13 00:26:00;;;;;;;;;;;17.70;70.10;;;;;;4860664;29;20008;-71
2021/07/13 00:28:26;;;;;;;;;;;17.70;70.40;;;;;;4861155;29;19924;-70
2021/07/13 00:30:52;;;;;;;;;;;17.70;70.40;;;;;;4860931;29;19928;-71
2021/07/13 00:33:18;;;;;;;;;;;17.70;70.40;;;;;;4861120;29;20064;-71
2021/07/13 00:35:45;;;;;;;;;;;17.70;70.50;;;;;;4860875;29;19931;-71
2021/07/13 00:38:11;;;;;;;;;;;17.70;70.60;;;;;;4860505;29;20383;-71
2021/07/13 00:40:37;;;;;;;;;;;17.70;70.50;;;;;;4860786;29;19924;-71
2021/07/13 00:43:03;;;;;;;;;;;17.70;70.70;;;;;;4860927;29;20018;-71
2021/07/13 00:45:30;;;;;;;;;;;17.70;70.90;;;;;;4860754;29;19924;-71
2021/07/13 00:47:56;;;;;;;;;;;17.70;71.10;;;;;;4860738;29;19932;-71
2021/07/13 00:50:25;;;;;;;;;;;17.70;71.40;;;;;;4860191;29;20052;-71
2021/07/13 00:52:51;;;;;;;;;;;17.70;72.40;;;;;;4860327;29;19924;-71
2021/07/13 00:55:17;;;;;;;;;;;17.70;71.70;;;;;;4847702;29;19924;-71
2021/07/13 00:57:43;;;;;;;;;;;17.70;71.80;;;;;;4860635;29;20439;-71
2021/07/13 01:00:11;;;;;;;;;;;17.70;71.70;;;;;;4860278;29;19924;-71
2021/07/13 01:02:38;;;;;;;;;;;17.70;71.80;;;;;;4860764;29;19924;-71
2021/07/13 01:05:09;;;;;;;;;;;17.70;71.80;;;;;;4859848;29;19938;-71
2021/07/13 01:07:42;;;;;;;;;;;17.60;71.70;;;;;;4860488;29;19928;-71
2021/07/13 01:10:15;;;;;;;;;;;17.60;71.80;;;;;;4857076;29;19924;-71
2021/07/13 01:12:56;;;;;;;;;;;17.60;71.90;;;;;;4866029;29;19924;-71
2021/07/13 01:15:25;;;;;;;;;;;17.60;71.80;;;;;;4860099;29;19972;-71
2021/07/13 01:17:52;;;;;;;;;;;17.60;71.90;;;;;;4859830;29;19924;-71
2021/07/13 01:20:18;;;;;;;;;;;17.60;71.80;;;;;;4860289;29;20023;-71
2021/07/13 01:22:49;;;;;;;;;;;17.50;72.00;;;;;;4860256;29;20445;-71
2021/07/13 01:25:30;;;;;;;;;;;17.50;72.10;;;;;;4860304;29;20024;-71
2021/07/13 01:28:07;;;;;;;;;;;17.50;72.20;;;;;;4860014;29;19931;-71
2021/07/13 01:30:37;;;;;;;;;;;17.50;72.10;;;;;;4860335;29;19947;-71
2021/07/13 01:33:08;;;;;;;;;;;17.50;72.40;;;;;;4859586;29;20399;-71
2021/07/13 01:35:46;;;;;;;;;;;17.50;72.40;;;;;;4859397;29;19924;-70
2021/07/13 01:38:12;;;;;;;;;;;17.50;72.50;;;;;;4859594;29;19932;-71
2021/07/13 01:40:39;;;;;;;;;;;17.40;72.60;;;;;;4860136;29;19928;-71
2021/07/13 01:43:07;;;;;;;;;;;17.40;72.60;;;;;;4860079;29;19931;-71
2021/07/13 01:45:33;;;;;;;;;;;17.40;72.80;;;;;;4858046;29;20353;-71
2021/07/13 01:48:01;;;;;;;;;;;17.40;72.80;;;;;;4859839;29;20407;-71
2021/07/13 01:50:27;;;;;;;;;;;17.40;72.90;;;;;;4859315;29;20455;-71
2021/07/13 01:52:54;;;;;;;;;;;17.40;73.00;;;;;;4859877;29;19991;-71
2021/07/13 01:55:20;;;;;;;;;;;17.40;73.20;;;;;;4859739;29;19980;-71
2021/07/13 01:57:47;;;;;;;;;;;17.30;73.10;;;;;;4860072;29;20058;-70
2021/07/13 02:00:13;;;;;;;;;;;17.30;73.10;;;;;;4859575;29;19924;-71
2021/07/13 02:02:42;;;;;;;;;;;17.40;73.20;;;;;;4859861;29;19947;-71
2021/07/13 02:05:09;;;;;;;;;;;17.40;73.30;;;;;;4859309;29;19972;-71
2021/07/13 02:07:36;;;;;;;;;;;17.40;73.20;;;;;;4859551;29;19931;-71
2021/07/13 02:10:05;;;;;;;;;;;17.30;73.20;;;;;;4859698;29;19924;-71
2021/07/13 02:12:33;;;;;;;;;;;17.30;73.30;;;;;;4866127;29;19924;-71
2021/07/13 02:15:00;;;;;;;;;;;17.40;73.50;;;;;;4859332;29;20054;-71
2021/07/13 02:17:29;;;;;;;;;;;17.40;73.50;;;;;;4859348;29;19939;-71
2021/07/13 02:19:59;;;;;;;;;;;17.30;73.50;;;;;;4859837;29;19924;-71
2021/07/13 02:22:25;;;;;;;;;;;17.30;73.70;;;;;;4859614;29;19924;-71
2021/07/13 02:24:51;;;;;;;;;;;17.30;73.80;;;;;;4859579;29;19924;-71
2021/07/13 02:27:19;;;;;;;;;;;17.20;73.90;;;;;;4859324;29;20022;-71
2021/07/13 02:29:49;;;;;;;;;;;17.20;74.10;;;;;;4859743;29;19924;-71
2021/07/13 02:32:16;;;;;;;;;;;17.20;74.20;;;;;;4859426;29;19931;-71
2021/07/13 02:34:43;;;;;;;;;;;17.20;74.00;;;;;;4859568;29;20015;-71
2021/07/13 02:37:12;;;;;;;;;;;17.20;74.10;;;;;;4858915;29;19924;-71
2021/07/13 02:39:39;;;;;;;;;;;17.20;74.30;;;;;;4859643;29;19959;-71
2021/07/13 02:42:06;;;;;;;;;;;17.20;74.50;;;;;;4859636;29;20023;-71
2021/07/13 02:44:33;;;;;;;;;;;17.20;74.50;;;;;;4859646;29;20056;-71
2021/07/13 02:47:04;;;;;;;;;;;17.10;74.70;;;;;;4861363;29;19979;-70
2021/07/13 02:49:31;;;;;;;;;;;17.10;74.80;;;;;;4862631;29;20450;-71
2021/07/13 02:51:58;;;;;;;;;;;17.10;74.90;;;;;;4862676;29;19931;-71
2021/07/13 02:54:26;;;;;;;;;;;17.20;75.00;;;;;;4862760;29;19924;-71
2021/07/13 02:56:52;;;;;;;;;;;17.20;75.00;;;;;;4862918;29;19930;-71
2021/07/13 02:59:21;;;;;;;;;;;17.10;75.00;;;;;;4862821;29;20011;-71
2021/07/13 03:01:47;;;;;;;;;;;17.10;75.00;;;;;;4862647;29;19931;-71
2021/07/13 03:04:13;;;;;;;;;;;17.10;75.10;;;;;;4862370;29;19924;-71
2021/07/13 03:06:40;;;;;;;;;;;17.20;75.40;;;;;;4862210;29;19924;-71
2021/07/13 03:09:07;;;;;;;;;;;17.10;75.40;;;;;;4862771;29;20195;-71
2021/07/13 03:11:33;;;;;;;;;;;17.10;75.50;;;;;;4864892;29;19924;-70
2021/07/13 03:14:04;;;;;;;;;;;17.10;75.80;;;;;;4862232;29;19968;-71
2021/07/13 03:16:31;;;;;;;;;;;17.10;75.90;;;;;;4862251;29;20006;-71
2021/07/13 03:18:59;;;;;;;;;;;17.10;76.00;;;;;;4862494;29;19928;-71
2021/07/13 03:21:27;;;;;;;;;;;17.10;76.20;;;;;;4862088;29;20060;-71
2021/07/13 03:23:54;;;;;;;;;;;17.10;76.50;;;;;;4862202;29;20019;-71
2021/07/13 03:26:20;;;;;;;;;;;17.10;76.50;;;;;;4861830;29;20332;-71
2021/07/13 03:28:47;;;;;;;;;;;17.10;76.70;;;;;;4862110;29;19924;-71
2021/07/13 03:31:13;;;;;;;;;;;17.10;76.80;;;;;;4862108;29;20015;-70
2021/07/13 03:33:39;;;;;;;;;;;17.10;76.80;;;;;;4861735;29;20014;-71
2021/07/13 03:36:05;;;;;;;;;;;17.10;77.00;;;;;;4862387;29;19963;-70
2021/07/13 03:38:31;;;;;;;;;;;17.10;77.30;;;;;;4862187;29;19924;-71
2021/07/13 03:40:58;;;;;;;;;;;17.10;77.30;;;;;;4861857;29;20018;-71
2021/07/13 03:43:28;;;;;;;;;;;17.10;77.30;;;;;;4861964;29;20053;-71
2021/07/13 03:45:55;;;;;;;;;;;17.10;77.50;;;;;;4860938;29;20408;-71
2021/07/13 03:48:22;;;;;;;;;;;17.10;77.70;;;;;;4861815;29;19928;-70
2021/07/13 03:50:48;;;;;;;;;;;17.10;78.00;;;;;;4861636;29;20015;-70
2021/07/13 03:53:14;;;;;;;;;;;17.00;78.00;;;;;;4861699;29;20007;-71
2021/07/13 03:55:42;;;;;;;;;;;17.00;78.30;;;;;;4861857;29;20064;-70
2021/07/13 03:58:08;;;;;;;;;;;17.00;78.30;;;;;;4860616;29;19932;-71
2021/07/13 04:00:34;;;;;;;;;;;17.10;78.40;;;;;;4861937;29;20011;-71
2021/07/13 04:03:00;;;;;;;;;;;17.10;78.40;;;;;;4859440;29;20315;-71
2021/07/13 04:05:28;;;;;;;;;;;17.10;78.40;;;;;;4859722;29;19931;-71
2021/07/13 04:07:55;;;;;;;;;;;17.10;78.60;;;;;;4861426;29;20012;-71
2021/07/13 04:10:21;;;;;;;;;;;17.10;78.80;;;;;;4861246;29;20376;-71
2021/07/13 04:12:47;;;;;;;;;;;17.10;79.00;;;;;;4865509;29;20409;-71
2021/07/13 04:15:13;;;;;;;;;;;17.10;79.20;;;;;;4861482;29;20435;-71
2021/07/13 04:17:40;;;;;;;;;;;17.10;79.40;;;;;;4860913;29;19993;-70
2021/07/13 04:20:07;;;;;;;;;;;17.10;79.70;;;;;;4861023;29;20451;-71
2021/07/13 04:22:34;;;;;;;;;;;17.10;80.10;;;;;;4859864;29;20018;-71
2021/07/13 04:25:00;;;;;;;;;;;17.10;80.50;;;;;;4861253;29;19924;-71
2021/07/13 04:27:26;;;;;;;;;;;17.10;80.90;;;;;;4848489;29;20023;-71
2021/07/13 04:29:52;;;;;;;;;;;17.10;81.40;;;;;;4861131;29;20016;-71
2021/07/13 04:32:18;;;;;;;;;;;17.00;81.80;;;;;;4857360;29;19932;-70
2021/07/13 04:34:44;;;;;;;;;;;17.10;82.40;;;;;;4861027;29;19931;-71
2021/07/13 04:37:11;;;;;;;;;;;17.10;82.80;;;;;;4849101;29;19971;-69
2021/07/13 04:39:37;;;;;;;;;;;17.10;83.10;;;;;;4861106;29;19928;-69
2021/07/13 04:42:03;;;;;;;;;;;17.20;83.60;;;;;;4860764;29;19976;-69
2021/07/13 04:44:29;;;;;;;;;;;17.20;83.60;;;;;;4857346;29;19924;-69
2021/07/13 04:46:55;;;;;;;;;;;17.30;83.70;;;;;;4860777;29;19935;-69
2021/07/13 04:49:21;;;;;;;;;;;17.30;83.80;;;;;;4860563;29;20003;-69
2021/07/13 04:51:47;;;;;;;;;;;17.40;84.20;;;;;;4851581;29;19983;-69
2021/07/13 04:54:14;;;;;;;;;;;17.40;84.20;;;;;;4845188;29;20376;-69
2021/07/13 04:56:40;;;;;;;;;;;17.40;84.20;;;;;;4845916;29;19932;-69
2021/07/13 04:59:06;;;;;;;;;;;17.40;84.40;;;;;;4843507;29;19968;-69
2021/07/13 05:01:32;;;;;;;;;;;17.40;84.50;;;;;;4843752;29;19975;-69
2021/07/13 05:03:59;;;;;;;;;;;17.40;84.50;;;;;;4841666;29;20486;-69
2021/07/13 05:06:25;;;;;;;;;;;17.40;84.40;;;;;;4846550;29;20053;-70
2021/07/13 05:08:51;;;;;;;;;;;17.50;84.50;;;;;;4841100;29;20019;-69
2021/07/13 05:11:17;;;;;;;;;;;17.50;84.30;;;;;;4843734;29;20447;-69
2021/07/13 05:13:43;;;;;;;;;;;17.50;84.10;;;;;;4845113;29;20007;-70
2021/07/13 05:16:09;;;;;;;;;;;17.50;84.10;;;;;;4842491;29;20011;-69
2021/07/13 05:18:36;;;;;;;;;;;17.60;84.20;;;;;;4857184;29;19924;-69
2021/07/13 05:21:05;;;;;;;;;;;17.50;84.20;;;;;;4859447;29;19928;-70
2021/07/13 05:23:31;;;;;;;;;;;17.50;84.30;;;;;;4858790;29;19924;-70
2021/07/13 05:25:57;;;;;;;;;;;17.50;84.40;;;;;;4860263;29;20154;-70
2021/07/13 05:28:24;;;;;;;;;;;17.50;84.30;;;;;;4859708;29;19976;-70
2021/07/13 05:30:50;;;;;;;;;;;17.50;84.30;;;;;;4860041;29;20064;-70
2021/07/13 05:33:16;;;;;;;;;;;17.40;84.30;;;;;;4860129;29;20014;-70
2021/07/13 05:35:43;;;;;;;;;;;17.40;84.60;;;;;;4859563;29;19971;-70
2021/07/13 05:38:11;;;;;;;;;;;17.40;84.70;;;;;;4859390;29;19946;-70
2021/07/13 05:40:38;;;;;;;;;;;17.40;84.70;;;;;;4859872;29;19971;-70
2021/07/13 05:43:04;;;;;;;;;;;17.50;84.40;;;;;;4860007;29;19924;-70
2021/07/13 05:45:30;;;;;;;;;;;17.50;84.20;;;;;;4859384;29;19924;-70
2021/07/13 05:47:56;;;;;;;;;;;17.50;84.00;;;;;;4859493;29;19998;-70
2021/07/13 05:50:22;;;;;;;;;;;17.50;84.20;;;;;;4859463;29;19976;-70
2021/07/13 05:52:48;;;;;;;;;;;17.50;84.10;;;;;;4859967;29;20028;-70
2021/07/13 05:55:14;;;;;;;;;;;17.60;84.10;;;;;;4860088;29;19927;-71
2021/07/13 05:57:40;;;;;;;;;;;17.60;84.00;;;;;;4860531;29;19978;-71
2021/07/13 06:00:08;;;;;;;;;;;17.50;84.10;;;;;;4859322;29;19963;-71
2021/07/13 06:02:34;;;;;;;;;;;17.50;84.20;;;;;;4859831;29;19924;-71
2021/07/13 06:05:00;;;;;;;;;;;17.50;84.90;;;;;;4855940;29;19967;-71
2021/07/13 06:07:26;;;;;;;;;;;17.50;83.60;;;;;;4847679;29;20391;-71
2021/07/13 06:09:52;;;;;;;;;;;17.50;83.60;;;;;;4844270;29;19924;-71
2021/07/13 06:12:18;;;;;;;;;;;17.50;83.70;;;;;;4853295;29;20451;-71
2021/07/13 06:14:45;;;;;;;;;;;17.50;83.40;;;;;;4859819;29;19924;-71
2021/07/13 06:17:11;;;;;;;;;;;17.40;83.50;;;;;;4859085;29;19928;-71
2021/07/13 06:19:37;;;;;;;;;;;17.40;83.40;;;;;;4858087;29;19924;-72
2021/07/13 06:22:03;;;;;;;;;;;17.40;83.60;;;;;;4861253;29;20395;-70
2021/07/13 06:24:30;;;;;;;;;;;17.40;83.70;;;;;;4863230;29;19924;-71
2021/07/13 06:26:56;;;;;;;;;;;17.40;83.60;;;;;;4862985;29;19971;-71
2021/07/13 06:29:22;;;;;;;;;;;17.40;83.90;;;;;;4863002;29;19924;-72
2021/07/13 06:31:51;;;;;;;;;;;17.30;83.50;;;;;;4862922;29;20064;-72
2021/07/13 06:34:18;;;;;;;;;;;17.40;83.70;;;;;;4862337;29;20284;-72
2021/07/13 06:36:44;;;;;;;;;;;17.30;83.40;;;;;;4851740;29;19931;-72
2021/07/13 06:39:10;;;;;;;;;;;17.40;83.70;;;;;;4862783;29;20069;-72
2021/07/13 06:41:36;;;;;;;;;;;17.40;83.30;;;;;;4846211;29;19935;-72
2021/07/13 06:44:03;;;;;;;;;;;17.40;83.30;;;;;;4843667;29;19924;-71
2021/07/13 06:46:29;;;;;;;;;;;17.40;83.30;;;;;;4863613;29;19924;-71
2021/07/13 06:48:55;;;;;;;;;;;17.40;83.30;;;;;;4863027;29;20449;-71
2021/07/13 06:51:21;;;;;;;;;;;17.40;83.20;;;;;;4863586;29;19924;-72
2021/07/13 06:53:48;;;;;;;;;;;17.40;83.20;;;;;;4863507;29;19973;-72
2021/07/13 06:56:15;;;;;;;;;;;17.40;83.10;;;;;;4861841;29;20019;-71
2021/07/13 06:58:41;;;;;;;;;;;17.50;83.10;;;;;;4862492;29;20388;-71
2021/07/13 07:01:07;;;;;;;;;;;17.50;83.00;;;;;;4862854;29;19924;-70
2021/07/13 07:03:34;;;;;;;;;;;17.50;82.80;;;;;;4862519;29;19984;-71
2021/07/13 07:06:00;;;;;;;;;;;17.60;82.80;;;;;;4862129;29;20008;-71
2021/07/13 07:08:26;;;;;;;;;;;17.60;82.30;;;;;;4862614;29;20296;-71
2021/07/13 07:10:52;;;;;;;;;;;17.70;82.40;;;;;;4862778;29;19923;-70
2021/07/13 07:13:18;;;;;;;;;;;17.70;82.10;;;;;;4866070;29;19951;-70
2021/07/13 07:15:44;;;;;;;;;;;17.70;81.90;;;;;;4862869;29;19924;-71
2021/07/13 07:18:10;;;;;;;;;;;17.70;81.90;;;;;;4862226;29;19924;-71
2021/07/13 07:20:36;;;;;;;;;;;17.70;81.80;;;;;;4862344;29;20018;-71
2021/07/13 07:23:03;;;;;;;;;;;17.70;81.80;;;;;;4862413;29;19939;-71
2021/07/13 07:25:30;;;;;;;;;;;17.80;81.70;;;;;;4862083;29;19931;-71
2021/07/13 07:27:58;;;;;;;;;;;17.80;81.70;;;;;;4853391;29;19931;-70
2021/07/13 07:30:25;;;;;;;;;;;17.80;81.60;;;;;;4862015;29;19947;-70
2021/07/13 07:32:51;;;;;;;;;;;17.90;81.60;;;;;;4861154;29;20076;-71
2021/07/13 07:35:17;;;;;;;;;;;17.80;81.00;;;;;;4862086;29;20019;-71
2021/07/13 07:37:43;;;;;;;;;;;17.80;81.00;;;;;;4862267;29;20419;-71
2021/07/13 07:40:11;;;;;;;;;;;17.90;81.20;;;;;;4860121;29;20019;-71
2021/07/13 07:42:37;;;;;;;;;;;17.90;80.80;;;;;;4860231;29;19924;-71
2021/07/13 07:45:07;;;;;;;;;;;17.90;80.50;;;;;;4861832;29;19999;-71
2021/07/13 07:47:33;;;;;;;;;;;17.90;80.70;;;;;;4861849;29;19924;-71
2021/07/13 07:49:59;;;;;;;;;;;17.90;80.50;;;;;;4862368;29;19972;-71
2021/07/13 07:52:25;;;;;;;;;;;18.00;80.40;;;;;;4861583;29;19973;-71
2021/07/13 07:54:51;;;;;;;;;;;17.90;80.10;;;;;;4861262;29;19924;-71
2021/07/13 07:57:17;;;;;;;;;;;17.90;79.70;;;;;;4861894;29;20023;-71
2021/07/13 07:59:44;;;;;;;;;;;17.90;79.40;;;;;;4861778;29;19976;-71
2021/07/13 08:02:10;;;;;;;;;;;17.90;79.70;;;;;;4861828;29;19978;-71
2021/07/13 08:04:36;;;;;;;;;;;17.90;79.30;;;;;;4860945;29;19935;-71
2021/07/13 08:07:02;;;;;;;;;;;17.80;79.60;;;;;;4860162;29;20389;-71
2021/07/13 08:09:28;;;;;;;;;;;17.80;79.90;;;;;;4861101;29;19944;-71
2021/07/13 08:11:54;;;;;;;;;;;17.90;80.00;;;;;;4865621;29;19931;-70
2021/07/13 08:14:21;;;;;;;;;;;18.00;79.20;;;;;;4861470;29;19978;-71
2021/07/13 08:16:49;;;;;;;;;;;18.00;79.00;;;;;;4861375;29;19924;-70
2021/07/13 08:19:16;;;;;;;;;;;18.00;78.60;;;;;;4861449;29;19947;-70
2021/07/13 08:21:42;;;;;;;;;;;18.10;78.70;;;;;;4861206;29;19930;-71
2021/07/13 08:24:10;;;;;;;;;;;18.10;78.20;;;;;;4859840;29;19935;-71
2021/07/13 08:26:36;;;;;;;;;;;18.10;78.60;;;;;;4861189;29;20019;-71
2021/07/13 08:29:03;;;;;;;;;;;18.10;79.60;;;;;;4861198;29;19928;-71
2021/07/13 08:31:29;;;;;;;;;;;18.10;78.70;;;;;;4860883;29;20408;-71
2021/07/13 08:33:55;;;;;;;;;;;18.10;79.00;;;;;;4861044;29;20430;-71
2021/07/13 08:36:22;;;;;;;;;;;18.10;78.00;;;;;;4861249;29;19928;-71
2021/07/13 08:38:48;;;;;;;;;;;18.00;78.20;;;;;;4860510;29;20372;-71
2021/07/13 08:41:16;;;;;;;;;;;17.90;79.00;;;;;;4861080;29;20440;-71
2021/07/13 08:43:43;;;;;;;;;;;17.90;79.20;;;;;;4860338;29;19931;-70
2021/07/13 08:46:09;;;;;;;;;;;17.90;79.40;;;;;;4860752;29;20003;-70
2021/07/13 08:48:38;;;;;;;;;;;17.90;79.40;;;;;;4860989;29;19931;-70
2021/07/13 08:51:05;;;;;;;;;;;17.90;79.30;;;;;;4860350;29;19972;-70
2021/07/13 08:53:31;;;;;;;;;;;18.00;79.30;;;;;;4860005;29;20305;-70
2021/07/13 08:55:57;;;;;;;;;;;18.00;79.40;;;;;;4860986;29;19979;-70
2021/07/13 08:58:23;;;;;;;;;;;18.00;79.40;;;;;;4860384;29;20323;-70
2021/07/13 09:00:50;;;;;;;;;;;18.10;79.70;;;;;;4860696;29;19924;-70
2021/07/13 09:03:20;;;;;;;;;;;18.20;78.50;;;;;;4860420;29;20389;-70
2021/07/13 09:05:46;;;;;;;;;;;18.20;78.40;;;;;;4860129;29;19974;-70
2021/07/13 09:08:14;;;;;;;;;;;18.30;78.30;;;;;;4860012;29;20048;-70
2021/07/13 09:10:57;;;;;;;;;;;18.30;78.00;;;;;;4860483;29;19970;-70
2021/07/13 09:13:24;;;;;;;;;;;18.30;77.80;;;;;;4856922;29;20342;-70
2021/07/13 09:15:55;;;;;;;;;;;18.30;78.00;;;;;;4860378;29;20015;-70
2021/07/13 09:18:28;;;;;;;;;;;18.30;77.70;;;;;;4860146;29;20304;-70
2021/07/13 09:21:04;;;;;;;;;;;18.40;77.00;;;;;;4860324;29;19956;-70
2021/07/13 09:23:30;;;;;;;;;;;18.40;77.10;;;;;;4859859;29;20403;-70
2021/07/13 09:25:56;;;;;;;;;;;18.30;77.00;;;;;;4860564;29;19962;-70
2021/07/13 09:28:24;;;;;;;;;;;18.30;76.90;;;;;;4858440;29;19931;-70
2021/07/13 09:30:54;;;;;;;;;;;18.30;77.20;;;;;;4860108;29;20043;-70
2021/07/13 09:33:24;;;;;;;;;;;18.40;77.00;;;;;;4860069;29;20066;-70
2021/07/13 09:36:05;;;;;;;;;;;18.40;76.80;;;;;;4860237;29;20020;-70
2021/07/13 09:38:33;;;;;;;;;;;18.50;76.70;;;;;;4859981;29;19924;-70
2021/07/13 09:41:19;;;;;;;;;;;18.60;76.50;;;;;;4859812;29;20017;-70
2021/07/13 09:43:52;;;;;;;;;;;18.70;76.20;;;;;;4860079;29;19947;-70
2021/07/13 09:46:29;;;;;;;;;;;18.80;76.20;;;;;;4859879;29;20010;-70
2021/07/13 09:49:08;;;;;;;;;;;18.90;75.70;;;;;;4859485;29;20044;-70
2021/07/13 09:51:34;;;;;;;;;;;18.90;75.00;;;;;;4842961;29;20413;-70
2021/07/13 09:54:01;;;;;;;;;;;18.90;75.50;;;;;;4859786;29;20002;-70
2021/07/13 09:56:40;;;;;;;;;;;18.80;76.00;;;;;;4858926;29;20064;-70
2021/07/13 09:59:06;;;;;;;;;;;18.70;76.60;;;;;;4859877;29;19924;-70
2021/07/13 10:01:33;;;;;;;;;;;18.70;76.80;;;;;;4859845;29;19924;-70
2021/07/13 10:04:01;;;;;;;;;;;18.70;76.90;;;;;;4859646;29;20307;-70
2021/07/13 10:06:29;;;;;;;;;;;18.70;76.60;;;;;;4859554;29;19924;-71
2021/07/13 10:08:57;;;;;;;;;;;18.70;77.00;;;;;;4859979;29;20060;-70
2021/07/13 10:11:23;;;;;;;;;;;18.80;77.20;;;;;;4863648;29;19924;-70
2021/07/13 10:13:50;;;;;;;;;;;19.00;76.80;;;;;;4859522;29;20418;-70
2021/07/13 10:16:16;;;;;;;;;;;19.20;76.40;;;;;;4859735;29;20005;-70
2021/07/13 10:18:43;;;;;;;;;;;19.30;76.20;;;;;;4859444;29;20011;-70
2021/07/13 10:21:09;;;;;;;;;;;19.50;76.20;;;;;;4859811;29;20304;-70
2021/07/13 10:23:36;;;;;;;;;;;19.80;75.50;;;;;;4859518;29;19964;-72
2021/07/13 10:26:02;;;;;;;;;;;20.00;73.90;;;;;;4859751;29;19931;-70
2021/07/13 10:28:32;;;;;;;;;;;20.10;73.80;;;;;;4859090;29;20007;-70
2021/07/13 10:30:59;;;;;;;;;;;20.30;73.10;;;;;;4859888;29;20023;-70
2021/07/13 10:33:29;;;;;;;;;;;20.40;72.90;;;;;;4859914;29;20380;-70
2021/07/13 10:35:56;;;;;;;;;;;20.30;72.40;;;;;;4859624;29;19928;-70
2021/07/13 10:38:25;;;;;;;;;;;20.40;71.90;;;;;;4859766;29;20435;-70
2021/07/13 10:40:54;;;;;;;;;;;20.30;71.90;;;;;;4859253;29;20023;-70
2021/07/13 10:43:21;;;;;;;;;;;20.30;72.10;;;;;;4859949;29;20010;-70
2021/07/13 10:45:49;;;;;;;;;;;20.40;72.00;;;;;;4859479;29;20388;-71
2021/07/13 10:48:16;;;;;;;;;;;20.50;70.80;;;;;;4858943;29;20435;-70
2021/07/13 10:50:48;;;;;;;;;;;20.50;71.30;;;;;;4859029;29;19924;-70
2021/07/13 10:53:19;;;;;;;;;;;20.50;71.50;;;;;;4859273;29;20299;-70
2021/07/13 10:56:06;;;;;;;;;;;20.50;71.00;;;;;;4859527;29;19923;-69
2021/07/13 10:58:35;;;;;;;;;;;20.50;71.00;;;;;;4858899;29;19931;-69
2021/07/13 11:01:03;;;;;;;;;;;20.40;71.10;;;;;;4859503;29;20452;-69
2021/07/13 11:03:29;;;;;;;;;;;20.40;72.00;;;;;;4859072;29;19935;-71
2021/07/13 11:05:58;;;;;;;;;;;20.40;71.80;;;;;;4858725;29;20007;-70
2021/07/13 11:11:28;;;;;;;;;;;20.30;71.40;;;;;;4864648;29;19931;-70
2021/07/13 11:13:55;;;;;;;;;;;20.30;72.30;;;;;;4850123;29;19924;-71
2021/07/13 11:16:26;;;;;;;;;;;20.20;72.60;;;;;;4862462;29;19935;-71
2021/07/13 11:18:53;;;;;;;;;;;20.20;72.40;;;;;;4861909;29;19924;-71
2021/07/13 11:21:20;;;;;;;;;;;20.20;73.20;;;;;;4862580;29;20019;-71
2021/07/13 11:23:49;;;;;;;;;;;20.20;72.60;;;;;;4862246;29;19924;-70
2021/07/13 11:26:16;;;;;;;;;;;20.30;72.70;;;;;;4862274;29;19974;-70
2021/07/13 11:28:45;;;;;;;;;;;20.50;72.40;;;;;;4861848;29;19924;-70
2021/07/13 11:31:17;;;;;;;;;;;20.80;72.90;;;;;;4862114;29;20361;-70
2021/07/13 11:33:51;;;;;;;;;;;21.10;72.50;;;;;;4861813;29;20011;-70
2021/07/13 11:36:23;;;;;;;;;;;21.20;70.50;;;;;;4862200;29;19975;-71
2021/07/13 11:38:49;;;;;;;;;;;21.20;69.70;;;;;;4861686;29;20071;-70
2021/07/13 11:41:16;;;;;;;;;;;21.10;70.20;;;;;;4861844;29;20293;-70
2021/07/13 11:43:43;;;;;;;;;;;21.00;70.00;;;;;;4861604;29;20320;-70
2021/07/13 11:46:13;;;;;;;;;;;21.00;70.10;;;;;;4861839;29;20010;-70
2021/07/13 11:48:39;;;;;;;;;;;20.90;69.50;;;;;;4861547;29;19924;-70
2021/07/13 11:51:08;;;;;;;;;;;20.80;68.80;;;;;;4861880;29;19924;-71
2021/07/13 11:53:34;;;;;;;;;;;20.70;69.70;;;;;;4861466;29;20018;-70
2021/07/13 11:56:01;;;;;;;;;;;20.60;70.30;;;;;;4862161;29;19924;-70
2021/07/13 11:58:31;;;;;;;;;;;20.50;68.90;;;;;;4861722;29;20052;-70
2021/07/13 12:01:30;;;;;;;;;;;20.50;70.30;;;;;;4861849;29;20003;-70
2021/07/13 12:04:04;;;;;;;;;;;20.60;71.90;;;;;;4768481;30;20020;-70
2021/07/13 12:06:31;;;;;;;;;;;20.70;70.50;;;;;;4768517;30;20016;-70
2021/07/13 12:08:58;;;;;;;;;;;20.70;70.20;;;;;;4773716;30;19930;-70
2021/07/13 12:11:34;;;;;;;;;;;20.70;70.50;;;;;;4773444;30;20358;-70
2021/07/13 12:14:01;;;;;;;;;;;20.70;70.90;;;;;;4768206;30;20063;-70
2021/07/13 12:16:31;;;;;;;;;;;20.90;70.30;;;;;;4768332;30;19929;-70
2021/07/13 12:19:02;;;;;;;;;;;21.10;70.20;;;;;;4767369;30;19975;-72
2021/07/13 12:21:29;;;;;;;;;;;21.10;70.40;;;;;;4768594;30;20444;-72
2021/07/13 12:23:56;;;;;;;;;;;21.30;68.90;;;;;;4768312;30;19930;-71
2021/07/13 12:26:32;;;;;;;;;;;21.40;67.60;;;;;;4769023;30;19933;-70
2021/07/13 12:28:59;;;;;;;;;;;21.30;67.20;;;;;;4767895;30;20024;-70
2021/07/13 12:31:25;;;;;;;;;;;21.30;68.10;;;;;;4776947;30;19954;-71
2021/07/13 12:33:52;;;;;;;;;;;21.30;68.40;;;;;;4770552;30;20088;-71
2021/07/13 12:36:28;;;;;;;;;;;21.20;69.00;;;;;;4768497;30;20453;-70
2021/07/13 12:38:56;;;;;;;;;;;21.20;68.80;;;;;;4789439;29;19928;-70
2021/07/13 12:41:26;;;;;;;;;;;21.10;68.60;;;;;;4861187;29;20284;-70
2021/07/13 12:43:52;;;;;;;;;;;21.10;68.50;;;;;;4860942;29;20415;-70
2021/07/13 12:46:25;;;;;;;;;;;21.10;69.70;;;;;;4860734;29;19973;-70
2021/07/13 12:48:51;;;;;;;;;;;21.10;69.10;;;;;;4860289;29;20300;-70
2021/07/13 12:51:25;;;;;;;;;;;21.10;67.70;;;;;;4861171;29;19924;-70
2021/07/13 12:54:06;;;;;;;;;;;21.10;68.50;;;;;;4860544;29;19977;-71
2021/07/13 12:56:32;;;;;;;;;;;21.10;68.80;;;;;;4860846;29;19924;-70
2021/07/13 12:59:08;;;;;;;;;;;21.00;68.80;;;;;;4860360;29;19963;-70
2021/07/13 13:01:35;;;;;;;;;;;21.00;68.70;;;;;;4860021;29;20053;-71
2021/07/13 13:04:12;;;;;;;;;;;20.90;67.90;;;;;;4860403;29;19924;-71
2021/07/13 13:06:39;;;;;;;;;;;20.70;68.00;;;;;;4860685;29;19967;-70
2021/07/13 13:09:05;;;;;;;;;;;20.70;69.00;;;;;;4860537;29;19924;-70
2021/07/13 13:11:32;;;;;;;;;;;20.60;69.20;;;;;;4864526;29;20368;-70
2021/07/13 13:14:01;;;;;;;;;;;20.70;69.50;;;;;;4860016;29;20049;-70
2021/07/13 13:16:31;;;;;;;;;;;20.80;69.90;;;;;;4860626;29;19973;-71
2021/07/13 13:18:59;;;;;;;;;;;20.80;69.10;;;;;;4859674;29;19969;-71
2021/07/13 13:21:26;;;;;;;;;;;20.80;69.50;;;;;;4860366;29;20300;-70
2021/07/13 13:23:53;;;;;;;;;;;20.80;70.10;;;;;;4860337;29;19943;-70
2021/07/13 13:26:19;;;;;;;;;;;20.90;70.20;;;;;;4860367;29;20414;-70
2021/07/13 13:28:45;;;;;;;;;;;21.10;68.80;;;;;;4859720;29;20015;-70
2021/07/13 13:31:11;;;;;;;;;;;21.10;67.20;;;;;;4860205;29;19924;-71
2021/07/13 13:33:41;;;;;;;;;;;21.20;66.30;;;;;;4860018;29;20022;-71
2021/07/13 13:38:41;;;;;;;;;;;21.10;67.80;;;;;;4860407;29;19924;-70
2021/07/13 13:41:07;;;;;;;;;;;21.00;68.10;;;;;;4860205;29;20008;-71
2021/07/13 13:43:33;;;;;;;;;;;21.00;68.50;;;;;;4859984;29;20082;-70
2021/07/13 13:46:00;;;;;;;;;;;20.90;68.20;;;;;;4859829;29;19981;-69
2021/07/13 13:48:26;;;;;;;;;;;20.80;68.40;;;;;;4859667;29;20451;-69
2021/07/13 13:50:52;;;;;;;;;;;20.80;69.30;;;;;;4859772;29;19924;-69
2021/07/13 13:53:18;;;;;;;;;;;20.80;69.20;;;;;;4859862;29;19972;-70
2021/07/13 13:55:44;;;;;;;;;;;20.90;69.50;;;;;;4860062;29;19924;-70
2021/07/13 13:58:10;;;;;;;;;;;21.00;68.70;;;;;;4859486;29;19924;-70
2021/07/13 14:00:37;;;;;;;;;;;21.10;68.50;;;;;;4859672;29;20019;-71
2021/07/13 14:03:03;;;;;;;;;;;21.10;68.80;;;;;;4859693;29;20015;-71
2021/07/13 14:05:29;;;;;;;;;;;21.20;68.60;;;;;;4859476;29;20053;-70
2021/07/13 14:07:56;;;;;;;;;;;21.30;67.20;;;;;;4859874;29;19924;-71
2021/07/13 14:10:23;;;;;;;;;;;21.30;67.10;;;;;;4859636;29;19935;-71
2021/07/13 14:12:50;;;;;;;;;;;21.30;66.80;;;;;;4863509;29;19985;-71
2021/07/13 14:15:17;;;;;;;;;;;21.30;66.20;;;;;;4859498;29;20006;-69
2021/07/13 14:17:44;;;;;;;;;;;21.30;65.80;;;;;;4860257;29;19924;-72
2021/07/13 14:20:11;;;;;;;;;;;21.30;66.30;;;;;;4859387;29;19946;-71
2021/07/13 14:22:40;;;;;;;;;;;21.30;66.00;;;;;;4859923;29;20472;-70
2021/07/13 14:25:07;;;;;;;;;;;21.30;66.50;;;;;;4859666;29;20015;-71